createdAt,value
2019-05-01T00:01:34.346Z,8.27
2019-05-01T00:04:23.037Z,8.30
2019-05-01T00:06:56.501Z,8.32
2019-05-01T00:09:28.466Z,8.34
2019-05-01T00:12:00.681Z,8.36
2019-05-01T00:14:33.830Z,8.39
2019-05-01T00:17:05.789Z,8.40
2019-05-01T00:19:37.449Z,8.40
2019-05-01T00:22:09.712Z,8.42
2019-05-01T00:24:41.268Z,8.39
2019-05-01T00:27:13.042Z,8.41
2019-05-01T00:29:44.985Z,8.44
2019-05-01T00:32:17.062Z,8.50
2019-05-01T00:34:48.674Z,8.46
2019-05-01T00:37:20.792Z,8.49
2019-05-01T00:39:52.547Z,8.52
2019-05-01T00:42:24.528Z,8.53
2019-05-01T00:44:56.078Z,8.54
2019-05-01T00:47:28.126Z,8.52
2019-05-01T00:50:00.176Z,8.52
2019-05-01T00:52:31.515Z,8.50
2019-05-01T00:55:20.521Z,8.53
2019-05-01T00:58:06.374Z,8.58
2019-05-01T01:00:43.122Z,8.53
2019-05-01T01:03:13.959Z,8.52
2019-05-01T01:05:45.452Z,8.53
2019-05-01T01:08:17.813Z,8.51
2019-05-01T01:10:50.490Z,8.54
2019-05-01T01:13:22.261Z,8.53
2019-05-01T01:15:53.899Z,8.54
2019-05-01T01:18:25.692Z,8.53
2019-05-01T01:20:57.518Z,8.54
2019-05-01T01:23:29.665Z,8.58
2019-05-01T01:26:01.148Z,8.32
2019-05-01T01:28:32.804Z,8.52
2019-05-01T01:31:04.879Z,8.53
2019-05-01T01:33:36.860Z,8.51
2019-05-01T01:36:09.765Z,8.52
2019-05-01T01:38:41.804Z,8.53
2019-05-01T01:41:13.769Z,8.54
2019-05-01T01:43:56.432Z,8.50
2019-05-01T01:46:29.854Z,8.51
2019-05-01T01:49:02.625Z,8.50
2019-05-01T01:51:34.407Z,8.48
2019-05-01T01:54:06.293Z,8.53
2019-05-01T01:56:38.051Z,8.50
2019-05-01T01:59:10.370Z,8.44
2019-05-01T02:02:00.167Z,8.38
2019-05-01T02:04:51.720Z,8.43
2019-05-01T02:07:23.496Z,8.40
2019-05-01T02:09:55.172Z,8.46
2019-05-01T02:12:27.450Z,8.45
2019-05-01T02:14:59.339Z,8.49
2019-05-01T02:17:30.974Z,8.44
2019-05-01T02:20:02.911Z,8.45
2019-05-01T02:22:34.514Z,8.47
2019-05-01T02:25:08.255Z,8.34
2019-05-01T02:27:50.412Z,8.48
2019-05-01T02:30:23.963Z,8.41
2019-05-01T02:32:56.847Z,8.41
2019-05-01T02:35:30.468Z,8.41
2019-05-01T02:38:04.920Z,8.41
2019-05-01T02:40:45.324Z,8.41
2019-05-01T02:43:19.036Z,8.41
2019-05-01T02:45:53.490Z,8.39
2019-05-01T02:48:27.513Z,8.43
2019-05-01T02:51:02.100Z,8.38
2019-05-01T02:53:36.878Z,8.45
2019-05-01T02:56:15.441Z,8.39
2019-05-01T02:58:49.892Z,8.40
2019-05-01T03:01:22.946Z,8.43
2019-05-01T03:03:56.890Z,8.46
2019-05-01T03:06:30.406Z,8.51
2019-05-01T03:09:05.042Z,8.50
2019-05-01T03:11:40.107Z,8.56
2019-05-01T03:14:17.477Z,8.53
2019-05-01T03:16:52.272Z,8.54
2019-05-01T03:19:35.787Z,8.59
2019-05-01T03:22:15.175Z,8.54
2019-05-01T03:24:47.337Z,8.55
2019-05-01T03:27:18.539Z,8.56
2019-05-01T03:29:50.416Z,8.57
2019-05-01T03:32:22.364Z,8.56
2019-05-01T03:34:54.649Z,8.62
2019-05-01T03:37:26.350Z,8.66
2019-05-01T03:39:58.089Z,8.70
2019-05-01T03:42:30.427Z,8.70
2019-05-01T03:45:02.732Z,8.74
2019-05-01T03:47:33.885Z,8.77
2019-05-01T03:50:06.732Z,8.82
2019-05-01T03:52:38.454Z,8.86
2019-05-01T03:55:11.285Z,8.91
2019-05-01T03:57:43.395Z,8.89
2019-05-01T04:00:17.503Z,8.89
2019-05-01T04:02:50.899Z,8.90
2019-05-01T04:05:22.721Z,8.87
2019-05-01T04:07:54.857Z,8.88
2019-05-01T04:10:26.683Z,8.96
2019-05-01T04:12:58.500Z,8.93
2019-05-01T04:15:30.665Z,8.99
2019-05-01T04:18:04.633Z,9.00
2019-05-01T04:20:36.986Z,8.99
2019-05-01T04:23:08.883Z,9.11
2019-05-01T04:25:40.950Z,9.18
2019-05-01T04:28:31.066Z,9.20
2019-05-01T04:31:14.981Z,9.26
2019-05-01T04:33:54.400Z,9.16
2019-05-01T04:36:27.965Z,9.21
2019-05-01T04:39:01.012Z,9.32
2019-05-01T04:41:36.071Z,9.38
2019-05-01T04:44:07.715Z,9.43
2019-05-01T04:46:39.731Z,9.48
2019-05-01T04:49:11.842Z,9.50
2019-05-01T04:51:43.815Z,9.55
2019-05-01T04:54:15.891Z,9.60
2019-05-01T04:56:48.373Z,9.62
2019-05-01T04:59:20.850Z,9.74
2019-05-01T05:02:00.536Z,9.65
2019-05-01T05:04:33.722Z,9.73
2019-05-01T05:07:05.688Z,9.84
2019-05-01T05:09:47.646Z,9.88
2019-05-01T05:12:30.504Z,9.61
2019-05-01T05:15:03.076Z,10.15
2019-05-01T05:17:34.505Z,10.18
2019-05-01T05:20:08.002Z,10.25
2019-05-01T05:22:40.059Z,10.18
2019-05-01T05:25:12.285Z,10.28
2019-05-01T05:27:45.789Z,10.13
2019-05-01T05:30:17.662Z,10.09
2019-05-01T05:32:52.104Z,10.16
2019-05-01T05:35:24.991Z,10.15
2019-05-01T05:38:00.393Z,10.29
2019-05-01T05:40:34.655Z,10.30
2019-05-01T05:43:06.858Z,10.30
2019-05-01T05:45:38.937Z,10.28
2019-05-01T05:49:21.264Z,10.49
2019-05-01T05:52:00.024Z,10.41
2019-05-01T05:54:38.822Z,10.38
2019-05-01T05:57:29.816Z,10.46
2019-05-01T06:00:13.557Z,10.51
2019-05-01T06:02:51.921Z,10.49
2019-05-01T06:05:43.354Z,10.52
2019-05-01T06:08:18.860Z,10.53
2019-05-01T06:10:53.700Z,10.63
2019-05-01T06:13:44.988Z,10.70
2019-05-01T06:16:29.439Z,10.88
2019-05-01T06:19:17.941Z,11.16
2019-05-01T06:22:12.127Z,11.25
2019-05-01T06:25:03.086Z,11.29
2019-05-01T06:27:35.789Z,11.44
2019-05-01T06:30:11.196Z,11.55
2019-05-01T06:32:42.750Z,11.58
2019-05-01T06:35:14.478Z,11.81
2019-05-01T06:37:56.048Z,12.01
2019-05-01T06:40:39.337Z,12.27
2019-05-01T06:43:20.187Z,11.99
2019-05-01T06:45:56.194Z,12.25
2019-05-01T06:48:29.746Z,12.24
2019-05-01T06:51:19.105Z,12.51
2019-05-01T06:53:52.800Z,12.63
2019-05-01T06:56:24.625Z,12.88
2019-05-01T06:58:56.883Z,12.92
2019-05-01T07:01:28.503Z,12.90
2019-05-01T07:04:04.076Z,13.19
2019-05-01T07:06:34.194Z,13.28
2019-05-01T07:09:11.801Z,13.62
2019-05-01T07:11:47.554Z,13.67
2019-05-01T07:14:17.591Z,14.15
2019-05-01T07:16:49.387Z,14.36
2019-05-01T07:19:23.819Z,14.41
2019-05-01T07:21:56.183Z,14.41
2019-05-01T07:24:29.161Z,15.46
2019-05-01T07:27:01.138Z,16.96
2019-05-01T07:29:34.655Z,16.63
2019-05-01T07:32:07.546Z,17.36
2019-05-01T07:34:39.209Z,17.19
2019-05-01T07:37:11.447Z,16.27
2019-05-01T07:39:44.921Z,16.64
2019-05-01T07:42:27.896Z,16.46
2019-05-01T07:45:03.973Z,17.29
2019-05-01T07:47:39.942Z,18.22
2019-05-01T07:50:14.458Z,18.44
2019-05-01T07:52:47.612Z,18.38
2019-05-01T07:55:37.887Z,18.28
2019-05-01T07:58:16.118Z,18.38
2019-05-01T08:00:54.460Z,18.70
2019-05-01T08:03:25.953Z,19.37
2019-05-01T08:05:59.371Z,20.62
2019-05-01T08:08:31.033Z,20.46
2019-05-01T08:11:05.297Z,19.45
2019-05-01T08:13:36.665Z,18.65
2019-05-01T08:16:08.802Z,18.41
2019-05-01T08:18:41.554Z,18.09
2019-05-01T08:21:26.198Z,17.35
2019-05-01T08:23:57.133Z,17.14
2019-05-01T08:26:29.332Z,16.95
2019-05-01T08:29:06.736Z,17.10
2019-05-01T08:31:44.148Z,17.29
2019-05-01T08:34:25.367Z,17.27
2019-05-01T08:36:58.086Z,17.18
2019-05-01T08:39:29.480Z,17.46
2019-05-01T08:42:03.146Z,17.57
2019-05-01T08:44:36.978Z,17.83
2019-05-01T08:47:13.371Z,17.94
2019-05-01T08:49:49.715Z,18.44
2019-05-01T08:52:20.063Z,19.22
2019-05-01T08:54:51.575Z,19.63
2019-05-01T08:57:23.657Z,19.35
2019-05-01T08:59:55.701Z,19.36
2019-05-01T09:02:28.855Z,19.72
2019-05-01T09:05:02.885Z,19.81
2019-05-01T09:07:35.703Z,20.04
2019-05-01T09:10:09.295Z,20.27
2019-05-01T09:12:42.591Z,20.84
2019-05-01T09:15:14.969Z,20.13
2019-05-01T09:17:46.978Z,20.13
2019-05-01T09:20:18.703Z,19.78
2019-05-01T09:22:52.097Z,20.15
2019-05-01T09:25:25.326Z,20.81
2019-05-01T09:27:59.603Z,20.98
2019-05-01T09:30:33.591Z,20.41
2019-05-01T09:33:05.540Z,20.20
2019-05-01T09:35:40.496Z,20.10
2019-05-01T09:38:10.527Z,19.66
2019-05-01T09:40:42.429Z,19.74
2019-05-01T09:43:14.489Z,20.04
2019-05-01T09:45:46.660Z,20.61
2019-05-01T09:48:18.426Z,20.44
2019-05-01T09:51:00.873Z,20.95
2019-05-01T09:53:37.053Z,21.31
2019-05-01T09:56:13.322Z,21.07
2019-05-01T09:58:45.076Z,21.10
2019-05-01T10:01:16.919Z,21.16
2019-05-01T10:03:49.566Z,21.28
2019-05-01T10:06:22.113Z,20.90
2019-05-01T10:08:53.767Z,20.80
2019-05-01T10:11:25.387Z,20.88
2019-05-01T10:13:58.377Z,21.03
2019-05-01T10:16:31.050Z,21.53
2019-05-01T10:19:02.938Z,21.32
2019-05-01T10:21:34.451Z,21.04
2019-05-01T10:24:06.323Z,20.91
2019-05-01T10:26:39.487Z,21.24
2019-05-01T10:29:25.847Z,21.66
2019-05-01T10:32:03.030Z,21.47
2019-05-01T10:34:43.064Z,21.16
2019-05-01T10:37:15.726Z,21.32
2019-05-01T10:39:50.181Z,21.83
2019-05-01T10:42:20.714Z,22.15
2019-05-01T10:44:52.569Z,22.45
2019-05-01T10:47:24.779Z,23.14
2019-05-01T10:49:56.275Z,23.04
2019-05-01T10:52:27.533Z,22.70
2019-05-01T10:54:59.665Z,22.68
2019-05-01T10:57:35.006Z,22.59
2019-05-01T11:00:09.707Z,22.11
2019-05-01T11:02:41.275Z,21.82
2019-05-01T11:05:12.976Z,21.89
2019-05-01T11:07:44.711Z,22.08
2019-05-01T11:10:17.592Z,22.12
2019-05-01T11:12:49.462Z,22.06
2019-05-01T11:15:21.281Z,22.11
2019-05-01T11:17:53.260Z,21.58
2019-05-01T11:20:25.343Z,22.15
2019-05-01T11:22:57.015Z,21.87
2019-05-01T11:25:29.776Z,21.30
2019-05-01T11:28:01.881Z,21.12
2019-05-01T11:30:34.582Z,21.18
2019-05-01T11:33:24.023Z,21.25
2019-05-01T11:36:08.988Z,21.45
2019-05-01T11:38:49.222Z,21.35
2019-05-01T11:41:25.529Z,21.63
2019-05-01T11:43:57.138Z,21.82
2019-05-01T11:46:29.034Z,21.58
2019-05-01T11:49:00.819Z,21.51
2019-05-01T11:51:32.745Z,21.46
2019-05-01T11:54:06.383Z,21.74
2019-05-01T11:56:38.245Z,21.75
2019-05-01T11:59:10.664Z,21.72
2019-05-01T12:01:42.531Z,21.62
2019-05-01T12:04:15.110Z,21.46
2019-05-01T12:06:46.938Z,21.34
2019-05-01T12:09:19.003Z,21.38
2019-05-01T12:11:52.314Z,21.73
2019-05-01T12:14:23.857Z,21.73
2019-05-01T12:16:57.303Z,21.63
2019-05-01T12:19:30.451Z,21.42
2019-05-01T12:22:02.126Z,21.34
2019-05-01T12:24:33.868Z,21.17
2019-05-01T12:27:05.697Z,21.28
2019-05-01T12:29:37.855Z,21.28
2019-05-01T12:32:09.772Z,21.20
2019-05-01T12:34:41.308Z,21.23
2019-05-01T12:37:17.372Z,21.10
2019-05-01T12:39:48.911Z,21.06
2019-05-01T12:42:22.218Z,21.13
2019-05-01T12:44:53.796Z,21.28
2019-05-01T12:47:28.096Z,21.17
2019-05-01T12:49:59.640Z,20.89
2019-05-01T12:52:33.027Z,20.71
2019-05-01T12:55:13.923Z,20.53
2019-05-01T12:57:45.788Z,20.46
2019-05-01T13:00:19.080Z,20.32
2019-05-01T13:02:50.824Z,20.13
2019-05-01T13:05:22.376Z,19.96
2019-05-01T13:07:54.444Z,19.68
2019-05-01T13:10:26.095Z,19.37
2019-05-01T13:12:57.963Z,17.43
2019-05-01T13:15:29.712Z,13.23
2019-05-01T13:18:01.236Z,10.17
2019-05-01T13:20:33.635Z,10.61
2019-05-01T13:23:05.219Z,11.05
2019-05-01T13:25:37.768Z,11.59
2019-05-01T13:28:11.246Z,12.05
2019-05-01T13:30:44.599Z,12.27
2019-05-01T13:33:16.313Z,12.54
2019-05-01T13:35:48.190Z,12.47
2019-05-01T13:38:19.723Z,12.66
2019-05-01T13:40:52.050Z,12.70
2019-05-01T13:43:23.748Z,12.78
2019-05-01T13:45:55.638Z,13.22
2019-05-01T13:48:27.276Z,13.52
2019-05-01T13:50:59.392Z,13.44
2019-05-01T13:53:31.594Z,13.40
2019-05-01T13:56:03.550Z,13.53
2019-05-01T13:58:35.231Z,13.39
2019-05-01T14:01:07.267Z,13.42
2019-05-01T14:03:38.676Z,13.77
2019-05-01T14:06:11.716Z,13.70
2019-05-01T14:08:43.391Z,13.88
2019-05-01T14:11:15.158Z,13.91
2019-05-01T14:13:46.896Z,13.91
2019-05-01T14:16:18.803Z,13.93
2019-05-01T14:18:50.868Z,14.00
2019-05-01T14:21:26.409Z,13.91
2019-05-01T14:24:00.518Z,13.77
2019-05-01T14:26:33.293Z,13.46
2019-05-01T14:29:05.477Z,13.41
2019-05-01T14:31:36.899Z,13.27
2019-05-01T14:34:08.813Z,13.12
2019-05-01T14:36:40.800Z,12.88
2019-05-01T14:39:12.722Z,12.46
2019-05-01T14:41:44.250Z,12.17
2019-05-01T14:44:16.202Z,12.21
2019-05-01T14:46:47.674Z,12.26
2019-05-01T14:49:19.493Z,12.45
2019-05-01T14:51:51.405Z,12.71
2019-05-01T14:54:23.340Z,12.68
2019-05-01T14:56:54.865Z,12.77
2019-05-01T14:59:26.544Z,12.96
2019-05-01T15:01:58.177Z,13.08
2019-05-01T15:04:30.418Z,13.38
2019-05-01T15:07:02.217Z,13.42
2019-05-01T15:09:33.870Z,13.43
2019-05-01T15:12:07.288Z,13.56
2019-05-01T15:14:43.328Z,13.60
2019-05-01T15:17:22.390Z,14.13
2019-05-01T15:20:04.776Z,14.36
2019-05-01T15:22:37.352Z,14.53
2019-05-01T15:25:09.197Z,14.60
2019-05-01T15:27:41.152Z,14.68
2019-05-01T15:30:15.560Z,14.75
2019-05-01T15:32:47.428Z,14.78
2019-05-01T15:35:19.146Z,14.71
2019-05-01T15:37:56.878Z,14.83
2019-05-01T15:40:38.250Z,14.94
2019-05-01T15:43:26.918Z,14.96
2019-05-01T15:45:59.095Z,15.01
2019-05-01T15:48:30.952Z,15.02
2019-05-01T15:51:02.503Z,15.07
2019-05-01T15:53:35.419Z,15.03
2019-05-01T15:56:07.457Z,14.96
2019-05-01T15:58:39.571Z,14.95
2019-05-01T16:01:11.382Z,14.93
2019-05-01T16:03:43.009Z,15.04
2019-05-01T16:06:14.791Z,15.08
2019-05-01T16:08:46.477Z,15.13
2019-05-01T16:11:28.447Z,15.21
2019-05-01T16:14:00.622Z,15.03
2019-05-01T16:16:32.120Z,14.87
2019-05-01T16:19:03.757Z,14.90
2019-05-01T16:21:35.284Z,14.72
2019-05-01T16:24:06.937Z,14.68
2019-05-01T16:26:38.682Z,14.59
2019-05-01T16:29:10.863Z,14.51
2019-05-01T16:31:42.366Z,14.41
2019-05-01T16:34:14.262Z,14.41
2019-05-01T16:36:45.830Z,14.43
2019-05-01T16:39:19.209Z,14.46
2019-05-01T16:41:50.689Z,14.45
2019-05-01T16:44:22.657Z,14.40
2019-05-01T16:46:54.174Z,14.34
2019-05-01T16:49:26.142Z,14.31
2019-05-01T16:51:57.748Z,14.28
2019-05-01T16:54:29.974Z,14.30
2019-05-01T16:57:01.739Z,14.31
2019-05-01T16:59:34.080Z,14.24
2019-05-01T17:02:12.811Z,14.24
2019-05-01T17:04:52.119Z,14.25
2019-05-01T17:07:25.341Z,14.23
2019-05-01T17:10:04.175Z,14.22
2019-05-01T17:12:49.598Z,14.12
2019-05-01T17:15:22.832Z,14.05
2019-05-01T17:17:54.595Z,13.92
2019-05-01T17:20:26.506Z,13.82
2019-05-01T17:22:58.461Z,13.77
2019-05-01T17:25:31.409Z,13.75
2019-05-01T17:28:08.151Z,13.82
2019-05-01T17:30:40.009Z,13.88
2019-05-01T17:33:19.495Z,13.74
2019-05-01T17:35:44.992Z,13.47
2019-05-01T17:38:16.683Z,13.31
2019-05-01T17:40:52.241Z,13.23
2019-05-01T17:43:22.303Z,13.20
2019-05-01T17:45:54.309Z,13.28
2019-05-01T17:48:28.968Z,13.34
2019-05-01T17:50:59.982Z,13.43
2019-05-01T17:53:32.019Z,13.49
2019-05-01T17:56:03.597Z,13.66
2019-05-01T17:58:35.556Z,13.73
2019-05-01T18:01:09.073Z,13.68
2019-05-01T18:03:51.329Z,13.69
2019-05-01T18:06:24.332Z,13.74
2019-05-01T18:09:02.894Z,13.71
2019-05-01T18:11:29.473Z,13.71
2019-05-01T18:14:01.746Z,13.67
2019-05-01T18:16:33.292Z,13.66
2019-05-01T18:19:09.750Z,13.67
2019-05-01T18:21:41.836Z,13.73
2019-05-01T18:24:18.946Z,13.76
2019-05-01T18:26:52.484Z,13.82
2019-05-01T18:29:28.454Z,13.86
2019-05-01T18:32:02.977Z,13.70
2019-05-01T18:34:33.888Z,13.24
2019-05-01T18:37:17.247Z,12.87
2019-05-01T18:39:48.937Z,12.59
2019-05-01T18:42:20.664Z,12.24
2019-05-01T18:44:52.440Z,12.24
2019-05-01T18:47:24.288Z,12.16
2019-05-01T18:49:56.040Z,12.15
2019-05-01T18:52:27.902Z,12.10
2019-05-01T18:54:59.662Z,12.11
2019-05-01T18:57:31.477Z,12.11
2019-05-01T19:00:03.086Z,12.07
2019-05-01T19:02:35.377Z,12.06
2019-05-01T19:05:08.775Z,12.04
2019-05-01T19:07:41.529Z,12.02
2019-05-01T19:10:13.279Z,12.04
2019-05-01T19:12:45.896Z,12.05
2019-05-01T19:15:21.129Z,12.03
2019-05-01T19:17:56.823Z,12.05
2019-05-01T19:20:30.692Z,12.05
2019-05-01T19:23:05.186Z,12.04
2019-05-01T19:25:38.963Z,11.96
2019-05-01T19:28:13.880Z,11.96
2019-05-01T19:30:47.599Z,11.97
2019-05-01T19:33:21.258Z,12.03
2019-05-01T19:36:02.683Z,12.02
2019-05-01T19:38:36.943Z,12.05
2019-05-01T19:41:14.050Z,12.06
2019-05-01T19:43:46.559Z,12.11
2019-05-01T19:46:20.335Z,12.14
2019-05-01T19:48:55.480Z,12.23
2019-05-01T19:51:29.294Z,12.30
2019-05-01T19:54:02.848Z,12.33
2019-05-01T19:56:36.479Z,12.36
2019-05-01T19:59:09.978Z,12.37
2019-05-01T20:01:49.120Z,12.43
2019-05-01T20:04:19.801Z,12.43
2019-05-01T20:06:55.479Z,12.43
2019-05-01T20:09:29.250Z,12.41
2019-05-01T20:12:03.508Z,12.47
2019-05-01T20:14:37.298Z,12.44
2019-05-01T20:17:11.879Z,12.43
2019-05-01T20:19:45.946Z,12.40
2019-05-01T20:22:19.909Z,12.35
2019-05-01T20:24:53.664Z,12.29
2019-05-01T20:27:27.919Z,12.19
2019-05-01T20:30:01.230Z,12.23
2019-05-01T20:32:34.890Z,12.21
2019-05-01T20:35:08.236Z,12.21
2019-05-01T20:37:41.735Z,12.22
2019-05-01T20:40:15.422Z,12.19
2019-05-01T20:42:48.057Z,12.15
2019-05-01T20:45:19.963Z,12.15
2019-05-01T20:47:54.295Z,12.18
2019-05-01T20:50:25.900Z,12.25
2019-05-01T20:52:58.122Z,12.24
2019-05-01T20:55:29.801Z,12.28
2019-05-01T20:58:20.807Z,12.33
2019-05-01T21:00:54.840Z,12.34
2019-05-01T21:03:26.385Z,12.34
2019-05-01T21:06:07.765Z,12.34
2019-05-01T21:08:40.713Z,12.35
2019-05-01T21:11:14.400Z,12.35
2019-05-01T21:13:46.162Z,12.44
2019-05-01T21:16:17.999Z,12.44
2019-05-01T21:18:49.548Z,12.42
2019-05-01T21:21:24.074Z,12.43
2019-05-01T21:23:56.754Z,12.45
2019-05-01T21:26:29.049Z,12.46
2019-05-01T21:29:00.623Z,12.45
2019-05-01T21:31:34.133Z,12.43
2019-05-01T21:34:05.907Z,12.49
2019-05-01T21:36:37.577Z,12.54
2019-05-01T21:39:09.066Z,12.49
2019-05-01T21:41:43.166Z,12.53
2019-05-01T21:44:14.553Z,12.52
2019-05-01T21:46:46.326Z,12.50
2019-05-01T21:49:17.936Z,12.52
2019-05-01T21:51:49.839Z,12.53
2019-05-01T21:54:22.030Z,12.52
2019-05-01T21:56:54.086Z,12.54
2019-05-01T21:59:26.539Z,12.51
2019-05-01T22:01:58.860Z,12.51
2019-05-01T22:04:32.048Z,12.54
2019-05-01T22:07:03.927Z,12.52
2019-05-01T22:09:36.760Z,12.42
2019-05-01T22:12:13.124Z,12.34
2019-05-01T22:14:46.474Z,12.24
2019-05-01T22:17:22.612Z,12.23
2019-05-01T22:19:54.048Z,12.30
2019-05-01T22:22:38.678Z,12.33
2019-05-01T22:25:22.002Z,12.36
2019-05-01T22:27:55.684Z,12.38
2019-05-01T22:30:31.345Z,12.40
2019-05-01T22:33:03.089Z,12.38
2019-05-01T22:35:40.237Z,12.36
2019-05-01T22:38:13.861Z,12.34
2019-05-01T22:41:05.863Z,12.34
2019-05-01T22:43:30.285Z,12.35
2019-05-01T22:46:03.311Z,12.38
2019-05-01T22:48:34.303Z,12.37
2019-05-01T22:51:07.473Z,12.33
2019-05-01T22:53:39.081Z,12.36
2019-05-01T22:56:10.709Z,12.38
2019-05-01T22:58:42.503Z,12.40
2019-05-01T23:01:18.214Z,12.39
2019-05-01T23:03:52.019Z,12.39
2019-05-01T23:06:23.648Z,12.32
2019-05-01T23:08:55.570Z,12.22
2019-05-01T23:11:28.984Z,12.23
2019-05-01T23:14:00.789Z,12.23
2019-05-01T23:16:34.671Z,12.15
2019-05-01T23:19:06.403Z,12.12
2019-05-01T23:21:38.440Z,12.16
2019-05-01T23:24:10.155Z,12.17
2019-05-01T23:26:41.644Z,12.12
2019-05-01T23:29:13.530Z,12.06
2019-05-01T23:31:45.055Z,12.00
2019-05-01T23:34:21.047Z,11.82
2019-05-01T23:36:49.984Z,11.74
2019-05-01T23:39:22.133Z,11.71
2019-05-01T23:41:54.135Z,11.61
2019-05-01T23:44:25.682Z,11.54
2019-05-01T23:46:57.762Z,11.49
2019-05-01T23:49:29.509Z,11.48
2019-05-01T23:52:03.354Z,11.44
2019-05-01T23:54:34.573Z,11.39
2019-05-01T23:57:06.361Z,11.31
2019-05-01T23:59:38.073Z,11.33
